Disclaimer

Please do not use the information listed here in-flight or in-navigation, as they are not provided to us by the airports but are provided by volunteers, so they might be outdated.

Search


Regions


Airport information page

Radio informations:
RDO - 130.85 MHz

Airport informations:
Latitude: 20° 48' 59.64" S
Longitude: 049° 24' 23.44" W
Elevation: 1784 feet - 544 meters
Operating hours: From sunrise to sunset (SR-SS)
Operating agency: Civil government, landing fees and diplomatic clearance may be required
Timezone: UTC-3(-2DT)
Fuel: Jet A1, without icing nhibitor.

100/130 octane gasoline, leaded, MIL-L-5572F (GREEN)

Runway information:
07/25 - 5381 x 115 feet< - >1640 x 35 meters

Recent METARs:
SBSR 211100Z 19006KT 9999 BKN015 BKN070 20/16 Q1017
SBSR 211100Z 19006KT 9999 BKN015 BKN070 20/16 Q1017
SBSR 211200Z 17007KT 9999 BKN025 BKN070 22/17 Q1017

Airport on the map: